createdAt,value
2024-04-06T06:53:29.517Z,15.41
2024-04-06T06:54:30.499Z,14.95
2024-04-06T06:55:30.488Z,14.66
2024-04-06T06:56:30.457Z,14.50
2024-04-06T06:57:31.097Z,14.44
2024-04-06T06:58:31.003Z,14.43
2024-04-06T07:00:30.394Z,14.54
2024-04-06T07:01:30.547Z,14.62
2024-04-06T07:02:30.372Z,14.72
2024-04-06T07:03:30.385Z,14.83
2024-04-06T07:04:30.352Z,14.92
2024-04-06T07:05:30.335Z,15.03
2024-04-06T07:07:33.785Z,15.28
2024-04-06T07:08:31.209Z,15.42
2024-04-06T07:09:30.282Z,15.57
2024-04-06T07:10:30.276Z,15.69
2024-04-06T07:11:30.303Z,15.79
2024-04-06T07:12:31.124Z,15.88
2024-04-06T07:13:30.332Z,15.94
2024-04-06T07:14:30.243Z,15.97
2024-04-06T07:15:30.199Z,15.97
2024-04-06T07:16:31.155Z,15.92
2024-04-06T07:17:31.143Z,15.86
2024-04-06T07:18:30.218Z,15.78
2024-04-06T07:19:30.467Z,15.70
2024-04-06T07:20:30.142Z,15.65
2024-04-06T07:21:30.160Z,15.62
2024-04-06T07:22:30.118Z,15.59
2024-04-06T07:23:30.115Z,15.55
2024-04-06T07:24:30.091Z,15.51
2024-04-06T07:25:30.138Z,15.49
2024-04-06T07:26:30.085Z,15.49
2024-04-06T07:27:30.075Z,15.50
2024-04-06T07:28:30.046Z,15.51
2024-04-06T07:29:30.005Z,15.53
2024-04-06T07:30:30.133Z,15.55
2024-04-06T07:31:30.045Z,15.57
2024-04-06T07:32:30.647Z,15.58
2024-04-06T07:33:29.962Z,15.59
2024-04-06T07:34:29.985Z,15.61
2024-04-06T07:35:29.938Z,15.63
2024-04-06T07:36:29.935Z,15.66
2024-04-06T07:37:29.953Z,15.71
2024-04-06T07:38:29.919Z,15.76
2024-04-06T07:39:29.875Z,15.83
2024-04-06T07:40:29.915Z,15.89
2024-04-06T07:41:29.844Z,15.96
2024-04-06T07:42:29.848Z,16.04
2024-04-06T07:43:29.901Z,16.13
2024-04-06T07:44:29.813Z,16.22
2024-04-06T07:45:29.823Z,16.31
2024-04-06T07:46:29.810Z,16.41
2024-04-06T07:47:29.815Z,16.53
2024-04-06T07:48:29.777Z,16.69
2024-04-06T07:49:29.900Z,16.86
2024-04-06T07:50:29.750Z,17.05
2024-04-06T07:51:29.738Z,17.24
2024-04-06T07:52:30.641Z,17.43
2024-04-06T07:53:29.707Z,17.59
2024-04-06T07:54:29.699Z,17.71
2024-04-06T07:55:29.694Z,17.78
2024-04-06T07:56:29.710Z,17.83
2024-04-06T07:57:29.659Z,17.86
2024-04-06T07:58:29.639Z,17.87
2024-04-06T07:59:29.611Z,17.88
2024-04-06T08:00:29.594Z,17.86
2024-04-06T08:01:29.632Z,17.83
2024-04-06T08:02:29.656Z,17.77
2024-04-06T08:03:29.588Z,17.74
2024-04-06T08:04:29.555Z,17.72
2024-04-06T08:05:29.554Z,17.73
2024-04-06T08:06:29.554Z,17.73
2024-04-06T08:07:29.521Z,17.77
2024-04-06T08:08:29.580Z,17.84
2024-04-06T08:09:29.474Z,17.93
2024-04-06T08:10:29.455Z,18.05
2024-04-06T08:11:29.486Z,18.21
2024-04-06T08:12:29.446Z,18.37
2024-04-06T08:13:29.448Z,18.50
2024-04-06T08:14:29.407Z,18.59
2024-04-06T08:15:30.938Z,18.68
2024-04-06T08:16:29.384Z,18.79
2024-04-06T08:17:29.378Z,18.92
2024-04-06T08:18:29.376Z,19.03
2024-04-06T08:19:29.376Z,19.11
2024-04-06T08:20:29.373Z,19.18
2024-04-06T08:21:29.374Z,19.23
2024-04-06T08:22:29.316Z,19.26
2024-04-06T08:23:29.294Z,19.27
2024-04-06T08:24:29.278Z,19.28
2024-04-06T08:25:29.304Z,19.26
2024-04-06T08:26:29.271Z,19.22
2024-04-06T08:27:29.261Z,19.21
2024-04-06T08:28:29.239Z,19.22
2024-04-06T08:29:29.233Z,19.23
2024-04-06T08:30:29.212Z,19.27
2024-04-06T08:31:29.248Z,19.31
2024-04-06T08:32:30.176Z,19.39
2024-04-06T08:33:29.162Z,19.48
2024-04-06T08:34:29.152Z,19.58
2024-04-06T08:35:29.154Z,19.68
2024-04-06T08:36:30.087Z,19.79
2024-04-06T08:37:29.131Z,19.90
2024-04-06T08:38:29.148Z,20.02
2024-04-06T08:39:29.084Z,20.11
2024-04-06T08:40:29.155Z,20.16
2024-04-06T08:41:29.042Z,20.16
2024-04-06T08:42:29.054Z,20.10
2024-04-06T08:43:29.097Z,20.01
2024-04-06T08:44:29.035Z,19.92
2024-04-06T08:45:29.010Z,19.83
2024-04-06T08:46:29.007Z,19.75
2024-04-06T08:47:28.956Z,19.71
2024-04-06T08:48:28.988Z,19.72
2024-04-06T08:49:29.003Z,19.78
2024-04-06T08:50:28.941Z,19.88
2024-04-06T08:51:28.906Z,19.99
2024-04-06T08:52:28.913Z,20.11
2024-04-06T08:53:28.896Z,20.21
2024-04-06T08:54:29.658Z,20.30
2024-04-06T08:55:28.894Z,20.37
2024-04-06T08:56:28.848Z,20.43
2024-04-06T08:57:28.841Z,20.48
2024-04-06T08:58:28.856Z,20.52
2024-04-06T08:59:28.803Z,20.54
2024-04-06T09:00:28.806Z,20.55
2024-04-06T09:01:28.917Z,20.56
2024-04-06T09:02:28.761Z,20.59
2024-04-06T09:03:28.771Z,20.62
2024-04-06T09:04:28.761Z,20.65
2024-04-06T09:05:28.714Z,20.68
2024-04-06T09:06:28.723Z,20.75
2024-04-06T09:07:28.737Z,20.83
2024-04-06T09:08:29.670Z,20.91
2024-04-06T09:09:28.660Z,20.98
2024-04-06T09:10:28.663Z,21.00
2024-04-06T09:11:28.657Z,20.98
2024-04-06T09:12:28.623Z,20.96
2024-04-06T09:13:28.737Z,20.95
2024-04-06T09:14:28.600Z,20.96
2024-04-06T09:15:28.604Z,21.01
2024-04-06T09:16:28.602Z,21.11
2024-04-06T09:17:28.617Z,21.20
2024-04-06T09:18:31.079Z,21.27
2024-04-06T09:19:28.574Z,21.37
2024-04-06T09:20:28.526Z,21.52
2024-04-06T09:21:28.519Z,21.71
2024-04-06T09:22:28.502Z,21.90
2024-04-06T09:23:28.480Z,22.00
2024-04-06T09:24:28.479Z,22.01
2024-04-06T09:25:28.540Z,21.99
2024-04-06T09:26:28.478Z,21.92
2024-04-06T09:27:28.434Z,21.83
2024-04-06T09:28:28.457Z,21.74
2024-04-06T09:29:28.459Z,21.65
2024-04-06T09:30:28.422Z,21.56
2024-04-06T09:31:28.554Z,21.51
2024-04-06T09:32:28.386Z,21.47
2024-04-06T09:33:28.430Z,21.42
2024-04-06T09:34:28.346Z,21.37
2024-04-06T09:35:28.334Z,21.29
2024-04-06T09:36:28.301Z,21.20
2024-04-06T09:37:28.335Z,21.14
2024-04-06T09:38:28.293Z,21.08
2024-04-06T09:39:28.295Z,21.07
2024-04-06T09:40:28.274Z,21.10
2024-04-06T09:41:28.269Z,21.11
2024-04-06T09:42:28.243Z,21.11
2024-04-06T09:43:29.185Z,21.08
2024-04-06T09:44:28.225Z,21.02
2024-04-06T09:45:28.196Z,20.98
2024-04-06T09:46:28.204Z,20.99
2024-04-06T09:47:28.231Z,21.06
2024-04-06T09:48:28.176Z,21.09
2024-04-06T09:49:28.233Z,21.08
2024-04-06T09:50:28.156Z,21.05
2024-04-06T09:51:28.147Z,21.02
2024-04-06T09:52:28.095Z,21.01
2024-04-06T09:53:28.694Z,21.00
2024-04-06T09:54:28.076Z,21.00
2024-04-06T09:55:28.086Z,21.04
2024-04-06T09:56:28.687Z,21.11
2024-04-06T09:57:28.094Z,21.17
2024-04-06T09:58:28.111Z,21.22
2024-04-06T09:59:28.033Z,21.26
2024-04-06T10:00:28.071Z,21.30
2024-04-06T10:01:28.050Z,21.37
2024-04-06T10:02:27.963Z,21.42
2024-04-06T10:03:27.970Z,21.42
2024-04-06T10:04:27.969Z,21.39
2024-04-06T10:05:27.932Z,21.37
2024-04-06T10:06:27.960Z,21.35
2024-04-06T10:07:27.945Z,21.34
2024-04-06T10:08:28.696Z,21.33
2024-04-06T10:09:27.927Z,21.34
2024-04-06T10:10:27.892Z,21.37
2024-04-06T10:11:27.908Z,21.41
2024-04-06T10:12:27.889Z,21.45
2024-04-06T10:13:27.875Z,21.51
2024-04-06T10:14:27.896Z,21.59
2024-04-06T10:15:27.832Z,21.66
2024-04-06T10:16:27.829Z,21.68
2024-04-06T10:17:28.701Z,21.68
2024-04-06T10:18:27.806Z,21.66
2024-04-06T10:19:27.890Z,21.61
2024-04-06T10:20:27.753Z,21.54
2024-04-06T10:21:27.759Z,21.47
2024-04-06T10:22:27.762Z,21.43
2024-04-06T10:23:27.720Z,21.41
2024-04-06T10:24:27.716Z,21.39
2024-04-06T10:25:27.718Z,21.36
2024-04-06T10:26:27.668Z,21.33
2024-04-06T10:27:28.215Z,21.33
2024-04-06T10:28:27.675Z,21.34
2024-04-06T10:29:28.609Z,21.40
2024-04-06T10:30:28.198Z,21.52
2024-04-06T10:31:39.238Z,21.66
2024-04-06T10:32:27.634Z,21.77
2024-04-06T10:33:27.614Z,21.87
2024-04-06T10:34:33.634Z,21.95
2024-04-06T10:35:27.554Z,21.97
2024-04-06T10:36:27.547Z,21.94
2024-04-06T10:37:27.639Z,21.93
2024-04-06T10:38:27.530Z,21.92
2024-04-06T10:39:27.513Z,21.96
2024-04-06T10:40:27.501Z,22.04
2024-04-06T10:41:27.470Z,22.10
2024-04-06T10:42:27.480Z,22.12
2024-04-06T10:43:27.475Z,22.06
2024-04-06T10:44:27.424Z,21.94
2024-04-06T10:45:27.430Z,21.83
2024-04-06T10:46:27.479Z,21.75
2024-04-06T10:47:27.512Z,21.70
2024-04-06T10:48:28.218Z,21.62
2024-04-06T10:49:27.471Z,21.53
2024-04-06T10:50:27.352Z,21.45
2024-04-06T10:51:27.355Z,21.36
2024-04-06T10:52:27.356Z,21.28
2024-04-06T10:53:27.340Z,21.21
2024-04-06T10:54:27.326Z,21.13
2024-04-06T10:55:27.337Z,21.06
2024-04-06T10:56:27.296Z,21.00
2024-04-06T10:57:27.341Z,20.98
2024-04-06T10:58:27.406Z,20.96
2024-04-06T10:59:28.233Z,20.92
2024-04-06T11:00:27.234Z,20.87
2024-04-06T11:01:27.238Z,20.84
2024-04-06T11:02:27.194Z,20.83
2024-04-06T11:03:27.212Z,20.88
2024-04-06T11:04:27.154Z,20.95
2024-04-06T11:05:27.175Z,21.07
2024-04-06T11:06:27.153Z,21.17
2024-04-06T11:07:27.198Z,21.15
2024-04-06T11:08:28.235Z,21.04
2024-04-06T11:09:27.115Z,20.94
2024-04-06T11:10:27.619Z,20.86
2024-04-06T11:11:27.083Z,20.82
2024-04-06T11:12:27.071Z,20.81
2024-04-06T11:13:27.085Z,20.85
2024-04-06T11:14:27.021Z,20.96
2024-04-06T11:15:27.027Z,21.11
2024-04-06T11:16:27.746Z,21.30
2024-04-06T11:17:27.045Z,21.54
2024-04-06T11:18:26.989Z,21.77
2024-04-06T11:19:26.992Z,21.96
2024-04-06T12:23:18.155Z,24.80
2024-04-06T12:24:16.987Z,24.32
2024-04-06T12:25:16.943Z,24.02
2024-04-06T12:26:17.728Z,23.84
2024-04-06T12:27:16.938Z,23.68
2024-04-06T12:28:16.921Z,23.55
2024-04-06T12:29:17.119Z,23.45
2024-04-06T12:30:16.872Z,23.38
2024-04-06T12:31:16.930Z,23.31
2024-04-06T12:32:16.871Z,23.25
2024-04-06T12:33:16.849Z,23.20
2024-04-06T12:34:16.843Z,23.18
2024-04-06T12:35:16.850Z,23.13
2024-04-06T12:36:17.685Z,23.07
2024-04-06T12:37:17.216Z,23.01
2024-04-06T12:38:16.822Z,22.95
2024-04-06T12:39:16.798Z,22.88
2024-04-06T12:40:16.792Z,22.83
2024-04-06T12:41:16.800Z,22.78
2024-04-06T12:42:17.697Z,22.73
2024-04-06T12:59:03.312Z,24.70
2024-04-06T13:00:03.164Z,24.26
2024-04-06T13:01:03.118Z,23.98
2024-04-06T13:02:03.127Z,23.85
2024-04-06T13:03:03.117Z,23.81
2024-04-06T13:05:03.135Z,23.75
2024-04-06T13:06:03.096Z,23.69
2024-04-06T13:07:03.081Z,23.62
2024-04-06T13:08:03.025Z,23.56
2024-04-06T13:09:02.995Z,23.51
2024-04-06T13:10:03.015Z,23.52
2024-04-06T13:11:03.061Z,23.56
2024-04-06T13:12:03.271Z,23.58
2024-04-06T13:13:03.019Z,23.61
2024-04-06T13:14:02.987Z,23.66
2024-04-06T13:15:02.974Z,23.72
2024-04-06T13:16:02.970Z,23.79
2024-04-06T13:17:03.068Z,23.85
2024-04-06T13:18:02.899Z,23.94
2024-04-06T13:19:02.890Z,23.98
2024-04-06T13:20:02.894Z,23.97
2024-04-06T13:21:02.898Z,23.95
2024-04-06T13:22:02.902Z,23.96
2024-04-06T13:23:02.962Z,23.97
2024-04-06T13:24:02.846Z,23.98
2024-04-06T13:25:02.801Z,23.97
2024-04-06T13:26:02.788Z,23.96
2024-04-06T13:27:02.787Z,23.94
2024-04-06T13:28:02.789Z,23.93
2024-04-06T13:29:02.778Z,23.97
2024-04-06T13:30:03.387Z,24.00
2024-04-06T13:31:02.783Z,24.03
2024-04-06T13:32:02.744Z,24.09
2024-04-06T13:33:02.708Z,24.12
2024-04-06T13:34:02.715Z,24.12
2024-04-06T13:35:02.731Z,24.14
2024-04-06T13:36:02.696Z,24.20
2024-04-06T13:37:02.631Z,24.28
2024-04-06T13:38:02.666Z,24.34
2024-04-06T13:39:02.613Z,24.38
2024-04-06T13:40:02.620Z,24.36
2024-04-06T13:41:02.645Z,24.34
2024-04-06T13:42:02.652Z,24.34
2024-04-06T13:43:02.582Z,24.33
2024-04-06T13:44:03.291Z,24.30
2024-04-06T13:45:02.518Z,24.25
2024-04-06T13:46:02.529Z,24.21
2024-04-06T13:47:02.620Z,24.16
2024-04-06T13:48:02.487Z,24.08
2024-04-06T13:49:02.500Z,24.00
2024-04-06T13:50:02.503Z,23.96
2024-04-06T13:51:02.444Z,23.96
2024-04-06T13:52:02.448Z,23.97
2024-04-06T13:53:02.534Z,23.98
2024-04-06T13:54:02.432Z,23.98
2024-04-06T13:55:02.430Z,23.97
2024-04-06T13:56:02.469Z,24.00
2024-04-06T13:57:02.440Z,24.05
2024-04-06T13:58:02.402Z,24.09
2024-04-06T13:59:02.384Z,24.11
2024-04-06T14:00:02.368Z,24.13
2024-04-06T14:01:02.410Z,24.16
2024-04-06T14:02:02.897Z,24.17
2024-04-06T14:03:02.341Z,24.14
2024-04-06T14:04:02.322Z,24.10
2024-04-06T14:05:02.319Z,24.05
2024-04-06T14:06:02.401Z,23.99
2024-04-06T14:07:02.280Z,23.93
2024-04-06T14:08:02.234Z,23.88
2024-04-06T14:09:02.248Z,23.86
2024-04-06T14:10:02.211Z,23.84
2024-04-06T14:11:02.199Z,23.83
2024-04-06T14:12:02.150Z,23.86
2024-04-06T14:13:02.735Z,23.91
2024-04-06T14:14:02.152Z,23.97
2024-04-06T14:15:02.148Z,24.04
2024-04-06T14:16:02.125Z,24.10
2024-04-06T14:17:02.900Z,24.11
2024-04-06T14:18:02.084Z,24.09
2024-04-06T14:19:02.065Z,24.05
2024-04-06T14:20:02.088Z,24.00
2024-04-06T14:21:02.037Z,23.95
2024-04-06T14:22:02.015Z,23.90
2024-04-06T14:23:02.293Z,23.87
2024-04-06T14:24:01.983Z,23.86
2024-04-06T14:25:01.998Z,23.84
2024-04-06T14:26:01.991Z,23.83
2024-04-06T14:27:01.961Z,23.82
2024-04-06T14:28:01.973Z,23.80
2024-04-06T14:29:01.960Z,23.79
2024-04-06T14:30:01.956Z,23.78
2024-04-06T14:31:01.994Z,23.76
2024-04-06T14:32:01.964Z,23.75
2024-04-06T14:33:01.947Z,23.75
2024-04-06T14:34:01.865Z,23.73
2024-04-06T14:35:02.004Z,23.70
2024-04-06T14:36:01.830Z,23.64
2024-04-06T14:37:01.838Z,23.60
2024-04-06T14:38:01.801Z,23.58
2024-04-06T14:39:01.819Z,23.57
2024-04-06T14:40:02.404Z,23.55
2024-04-06T14:41:01.923Z,23.52
2024-04-06T14:42:01.759Z,23.50
2024-04-06T14:43:01.726Z,23.50
2024-04-06T14:44:01.735Z,23.52
2024-04-06T14:45:02.411Z,23.53
2024-04-06T14:46:01.704Z,23.56
2024-04-06T14:47:01.751Z,23.59
2024-04-06T14:48:01.692Z,23.65
2024-04-06T14:49:01.658Z,23.73
2024-04-06T14:50:01.647Z,23.81
2024-04-06T14:51:01.628Z,23.87
2024-04-06T14:52:01.618Z,23.93
2024-04-06T14:53:01.648Z,23.97
2024-04-06T14:54:01.614Z,24.01
2024-04-06T14:55:01.592Z,24.05
2024-04-06T14:56:02.421Z,24.08
2024-04-06T14:57:01.642Z,24.11
2024-04-06T14:58:01.537Z,24.13
2024-04-06T15:09:48.802Z,25.77
2024-04-06T15:10:47.796Z,25.33
2024-04-06T15:11:47.776Z,25.05
2024-04-06T15:12:47.754Z,24.87
2024-04-06T15:13:47.724Z,24.75
2024-04-06T15:14:47.725Z,24.67
2024-04-06T15:15:47.761Z,24.60
2024-04-06T15:16:47.693Z,24.52
2024-04-06T15:17:47.687Z,24.43
2024-04-06T15:18:47.693Z,24.39
2024-04-06T15:19:47.653Z,24.36
2024-04-06T15:20:47.661Z,24.32
2024-04-06T15:21:47.657Z,24.27
2024-04-06T15:22:47.622Z,24.23
2024-04-06T15:23:47.608Z,24.20
2024-04-06T15:24:47.585Z,24.16
2024-04-06T15:25:47.588Z,24.13
2024-04-06T15:26:47.569Z,24.09
2024-04-06T15:27:47.699Z,24.04
2024-04-06T15:28:47.570Z,24.02
2024-04-06T15:29:47.533Z,24.00
2024-04-06T15:30:47.517Z,23.99
2024-04-06T15:31:47.525Z,24.00
2024-04-06T15:32:47.482Z,24.02
2024-04-06T15:33:47.500Z,24.03
2024-04-06T15:34:47.473Z,24.03
2024-04-06T15:35:47.431Z,24.00
2024-04-06T15:36:47.710Z,23.97
2024-04-06T15:37:47.436Z,23.95
2024-04-06T15:38:47.432Z,23.96
2024-04-06T15:39:47.994Z,24.00
2024-04-06T15:40:47.590Z,24.02
2024-04-06T15:41:47.651Z,23.99
2024-04-06T15:42:47.438Z,23.93
2024-04-06T15:43:47.379Z,23.85
2024-04-06T15:44:47.486Z,23.78
2024-04-06T15:45:47.389Z,23.71
2024-04-06T15:46:47.400Z,23.66
2024-04-06T15:47:47.432Z,23.62
2024-04-06T15:48:47.879Z,23.60
2024-04-06T15:49:47.517Z,23.61
2024-04-06T15:50:47.424Z,23.64
2024-04-06T15:51:47.569Z,23.69
2024-04-06T15:52:47.405Z,23.71
2024-04-06T15:53:47.346Z,23.71
2024-04-06T15:54:47.204Z,23.70
2024-04-06T15:55:47.207Z,23.68
2024-04-06T15:56:47.231Z,23.65
2024-04-06T15:57:47.499Z,23.60
2024-04-06T15:58:47.194Z,23.57
2024-04-06T15:59:47.149Z,23.56
2024-04-06T16:00:47.128Z,23.59
2024-04-06T16:01:47.182Z,23.65
2024-04-06T16:02:47.093Z,23.72
2024-04-06T16:03:47.134Z,23.80
2024-04-06T16:04:47.054Z,23.87
2024-04-06T16:05:47.088Z,23.89
2024-04-06T16:06:47.034Z,23.85
2024-04-06T16:07:47.017Z,23.79
2024-04-06T16:08:47.005Z,23.73
2024-04-06T16:09:47.038Z,23.67
2024-04-06T16:10:47.011Z,23.62
2024-04-06T16:11:46.992Z,23.58
2024-04-06T16:12:46.955Z,23.59
2024-04-06T16:13:46.962Z,23.62
2024-04-06T16:14:46.992Z,23.66
2024-04-06T16:15:46.963Z,23.69
2024-04-06T16:16:46.929Z,23.73
2024-04-06T16:17:46.927Z,23.76
2024-04-06T16:18:47.000Z,23.79
2024-04-06T16:19:46.896Z,23.79
2024-04-06T16:20:46.854Z,23.80
2024-04-06T16:21:46.893Z,23.81
2024-04-06T16:22:46.825Z,23.80
2024-04-06T16:23:46.803Z,23.79
2024-04-06T16:24:46.796Z,23.76
2024-04-06T16:25:46.778Z,23.72
2024-04-06T16:26:46.784Z,23.70
2024-04-06T16:27:46.781Z,23.69
2024-04-06T16:28:46.759Z,23.67
2024-04-06T16:29:46.759Z,23.64
2024-04-06T16:30:46.758Z,23.63
2024-04-06T16:31:46.691Z,23.63
2024-04-06T16:32:46.717Z,23.62
2024-04-06T16:33:46.713Z,23.60
2024-04-06T16:34:46.700Z,23.56
2024-04-06T16:35:46.644Z,23.53
2024-04-06T16:36:46.680Z,23.49
2024-04-06T16:37:46.632Z,23.44
2024-04-06T16:38:46.613Z,23.39
2024-04-06T16:39:46.630Z,23.34
2024-04-06T16:40:46.588Z,23.28
2024-04-06T16:41:46.593Z,23.23
2024-04-06T16:42:46.602Z,23.20
2024-04-06T16:43:46.603Z,23.18
2024-04-06T16:44:46.534Z,23.16
2024-04-06T16:45:46.665Z,23.15
2024-04-06T16:46:46.508Z,23.13
2024-04-06T16:47:46.498Z,23.09
2024-04-06T16:48:46.496Z,23.03
2024-04-06T16:49:46.456Z,22.96
2024-04-06T16:50:46.451Z,22.88
2024-04-06T16:51:46.511Z,22.80
2024-04-06T16:52:46.438Z,22.72
2024-04-06T16:53:46.410Z,22.66
2024-04-06T16:54:46.418Z,22.59
2024-04-06T16:55:46.384Z,22.55
2024-04-06T16:56:46.386Z,22.53
2024-04-06T16:57:46.392Z,22.51
2024-04-06T16:58:46.342Z,22.48
2024-04-06T16:59:46.340Z,22.47
2024-04-06T17:00:46.334Z,22.45
2024-04-06T17:01:46.307Z,22.43
2024-04-06T17:02:46.305Z,22.40
2024-04-06T17:03:46.306Z,22.35
2024-04-06T17:04:46.305Z,22.30
2024-04-06T17:05:49.737Z,22.26
2024-04-06T17:06:46.248Z,22.23
2024-04-06T17:07:46.220Z,22.20
2024-04-06T17:08:46.209Z,22.17
2024-04-06T17:09:46.261Z,22.13
2024-04-06T17:10:46.256Z,22.09
2024-04-06T17:11:46.180Z,22.05
2024-04-06T17:12:46.169Z,22.00
2024-04-06T17:13:46.159Z,21.95
2024-04-06T17:14:46.173Z,21.91
2024-04-06T17:15:46.176Z,21.88
2024-04-06T17:16:46.122Z,21.87
2024-04-06T17:17:46.102Z,21.85
2024-04-06T17:18:46.116Z,21.81
2024-04-06T17:19:46.092Z,21.77
2024-04-06T17:20:46.040Z,21.73
2024-04-06T17:21:46.078Z,21.69
2024-04-06T17:22:46.040Z,21.64
2024-04-06T17:23:46.039Z,21.59
2024-04-06T17:24:46.022Z,21.55
2024-04-06T17:25:46.012Z,21.53
2024-04-06T17:26:45.971Z,21.51
2024-04-06T17:27:46.016Z,21.49
2024-04-06T17:28:45.941Z,21.47
2024-04-06T17:29:45.947Z,21.44
2024-04-06T17:30:45.928Z,21.41
2024-04-06T17:31:45.908Z,21.37
2024-04-06T17:32:45.908Z,21.32
2024-04-06T17:33:45.929Z,21.28
2024-04-06T17:34:45.884Z,21.26
2024-04-06T17:35:45.850Z,21.25
2024-04-06T17:36:45.870Z,21.23
2024-04-06T17:37:45.841Z,21.21
2024-04-06T17:38:45.812Z,21.19
2024-04-06T17:39:45.951Z,21.16
2024-04-06T17:40:45.784Z,21.12
2024-04-06T17:41:45.777Z,21.06
2024-04-06T17:42:45.783Z,21.00
2024-04-06T17:43:45.756Z,20.94
2024-04-06T17:44:45.760Z,20.88
2024-04-06T17:45:45.754Z,20.81
2024-04-06T17:46:45.728Z,20.73
2024-04-06T17:47:45.709Z,20.64
2024-04-06T17:48:45.678Z,20.55
2024-04-06T17:49:45.677Z,20.47
2024-04-06T17:50:45.656Z,20.39
2024-04-06T17:51:45.708Z,20.32
2024-04-06T17:52:45.636Z,20.27
2024-04-06T17:53:45.609Z,20.22
2024-04-06T17:54:45.635Z,20.17
2024-04-06T17:55:45.575Z,20.11
2024-04-06T17:56:47.716Z,20.06
2024-04-06T17:57:45.702Z,20.01
2024-04-06T17:58:45.564Z,19.99
2024-04-06T17:59:45.555Z,20.01
2024-04-06T18:00:45.583Z,20.04
2024-04-06T18:01:45.553Z,20.05
2024-04-06T18:02:45.496Z,20.05
2024-04-06T18:03:45.615Z,20.03
2024-04-06T18:04:45.479Z,19.99
2024-04-06T18:05:45.447Z,19.96
2024-04-06T18:06:45.449Z,19.90
2024-04-06T18:07:45.423Z,19.84
2024-04-06T18:08:45.454Z,19.78
2024-04-06T18:09:45.442Z,19.71
2024-04-06T18:10:45.421Z,19.66
2024-04-06T18:11:45.402Z,19.65
2024-04-06T18:12:45.373Z,19.65
2024-04-06T18:13:45.367Z,19.63
2024-04-06T18:14:45.362Z,19.58
2024-04-06T18:15:45.376Z,19.53
2024-04-06T18:16:45.331Z,19.47
2024-04-06T18:17:45.331Z,19.41
2024-04-06T18:18:45.313Z,19.35
2024-04-06T18:19:45.296Z,19.30
2024-04-06T18:20:45.268Z,19.25
2024-04-06T18:21:45.309Z,19.21
2024-04-06T18:22:45.242Z,19.19
2024-04-06T18:23:45.223Z,19.17
2024-04-06T18:24:45.253Z,19.16
2024-04-06T18:25:45.188Z,19.17
2024-04-06T18:26:45.215Z,19.19
2024-04-06T18:27:45.297Z,19.20
2024-04-06T18:28:45.152Z,19.20
2024-04-06T18:29:45.167Z,19.20
2024-04-06T18:30:45.135Z,19.22
2024-04-06T18:31:45.116Z,19.25
2024-04-06T18:32:45.131Z,19.30
2024-04-06T18:33:45.253Z,19.36
2024-04-06T18:34:45.088Z,19.42
2024-04-06T18:35:45.194Z,19.44
2024-04-06T18:36:45.047Z,19.43
2024-04-06T18:37:45.067Z,19.39
2024-04-06T18:38:45.062Z,19.35
2024-04-06T18:39:45.199Z,19.31
2024-04-06T18:40:45.044Z,19.26
2024-04-06T18:41:44.992Z,19.21
2024-04-06T18:42:45.009Z,19.15
2024-04-06T18:43:44.943Z,19.09
2024-04-06T18:44:45.054Z,19.04
2024-04-06T18:45:45.028Z,19.01
2024-04-06T18:46:44.969Z,18.98
2024-04-06T18:47:44.943Z,18.95
2024-04-06T18:48:44.948Z,18.91
2024-04-06T18:49:44.972Z,18.87
2024-04-06T18:50:44.959Z,18.83
2024-04-06T18:51:44.951Z,18.80
2024-04-06T18:52:44.934Z,18.77
2024-04-06T18:53:44.869Z,18.74
2024-04-06T18:54:44.874Z,18.72
2024-04-06T18:55:44.863Z,18.73
2024-04-06T18:56:44.832Z,18.78
2024-04-06T18:57:44.879Z,18.82
2024-04-06T18:58:44.805Z,18.83
2024-04-06T18:59:44.803Z,18.82
2024-04-06T19:00:44.806Z,18.80
2024-04-06T19:01:44.774Z,18.78
2024-04-06T19:02:44.779Z,18.76
2024-04-06T19:03:44.772Z,18.74
2024-04-06T19:04:44.746Z,18.72
2024-04-06T19:05:44.755Z,18.69
2024-04-06T19:06:44.698Z,18.65
2024-04-06T19:07:44.678Z,18.62
2024-04-06T19:08:44.688Z,18.60
2024-04-06T19:09:44.704Z,18.59
2024-04-06T19:10:44.661Z,18.58
2024-04-06T19:11:44.619Z,18.59
2024-04-06T19:12:44.606Z,18.61
2024-04-06T19:13:44.611Z,18.62
2024-04-06T19:14:44.619Z,18.62
2024-04-06T19:15:44.673Z,18.64
2024-04-06T19:16:44.612Z,18.66
2024-04-06T19:17:44.576Z,18.71
2024-04-06T19:18:44.529Z,18.76
2024-04-06T19:19:44.533Z,18.80
2024-04-06T19:20:44.554Z,18.84
2024-04-06T19:21:44.536Z,18.86
2024-04-06T19:22:44.471Z,18.87
2024-04-06T19:23:44.477Z,18.87
2024-04-06T19:24:44.461Z,18.85
2024-04-06T19:25:44.428Z,18.82
2024-04-06T19:26:44.449Z,18.76
2024-04-06T19:27:44.449Z,18.69
2024-04-06T19:28:44.398Z,18.60
2024-04-06T19:29:44.398Z,18.50
2024-04-06T19:30:44.383Z,18.39
2024-04-06T19:31:44.376Z,18.29
2024-04-06T19:32:44.376Z,18.18
2024-04-06T19:33:44.387Z,18.07
2024-04-06T19:34:44.368Z,17.97
2024-04-06T19:35:44.308Z,17.88
2024-04-06T19:36:44.338Z,17.80
2024-04-06T19:37:44.327Z,17.71
2024-04-06T19:38:44.272Z,17.63
2024-04-06T19:39:44.285Z,17.57
2024-04-06T19:40:44.247Z,17.52
2024-04-06T19:41:44.214Z,17.47
2024-04-06T19:42:44.206Z,17.45
2024-04-06T19:43:44.192Z,17.46
2024-04-06T19:44:44.195Z,17.51
2024-04-06T19:45:44.195Z,17.62
2024-04-06T19:46:44.167Z,17.77
2024-04-06T19:47:44.130Z,17.96
2024-04-06T19:48:44.145Z,18.11
2024-04-06T19:49:44.117Z,18.24
2024-04-06T19:50:44.124Z,18.30
2024-04-06T19:51:44.131Z,18.32
2024-04-06T19:52:44.070Z,18.32
2024-04-06T19:53:44.059Z,18.31
2024-04-06T19:54:44.111Z,18.28
2024-04-06T19:55:44.037Z,18.24
2024-04-06T19:56:44.029Z,18.21
2024-04-06T19:57:44.025Z,18.20
2024-04-06T19:58:45.362Z,18.20
2024-04-06T19:59:43.990Z,18.20
2024-04-06T20:00:43.989Z,18.20
2024-04-06T20:01:43.978Z,18.20
2024-04-06T20:02:43.937Z,18.18
2024-04-06T20:03:43.966Z,18.13
2024-04-06T20:04:43.912Z,18.06
2024-04-06T20:05:49.867Z,18.01
2024-04-06T20:06:43.885Z,17.97
2024-04-06T20:07:43.862Z,17.95
2024-04-06T20:08:43.887Z,17.93
2024-04-06T20:09:43.886Z,17.90
2024-04-06T20:10:43.860Z,17.88
2024-04-06T20:11:43.820Z,17.88
2024-04-06T20:12:43.825Z,17.88
2024-04-06T20:13:43.790Z,17.86
2024-04-06T20:14:43.777Z,17.81
2024-04-06T20:15:43.788Z,17.77
2024-04-06T20:16:43.769Z,17.76
2024-04-06T20:17:43.734Z,17.78
2024-04-06T20:18:43.740Z,17.81
2024-04-06T20:19:43.723Z,17.82
2024-04-06T20:20:43.725Z,17.79
2024-04-06T20:21:43.757Z,17.76
2024-04-06T20:22:43.666Z,17.70
2024-04-06T20:23:43.680Z,17.66
2024-04-06T20:24:47.500Z,17.64
2024-04-06T20:25:43.650Z,17.63
2024-04-06T20:26:43.630Z,17.63
2024-04-06T20:27:43.640Z,17.62
2024-04-06T20:28:43.626Z,17.62
2024-04-06T20:29:43.584Z,17.60
2024-04-06T20:30:43.586Z,17.58
2024-04-06T20:31:43.567Z,17.55
2024-04-06T20:32:43.537Z,17.51
2024-04-06T20:33:43.594Z,17.48
2024-04-06T20:34:43.532Z,17.45
2024-04-06T20:35:43.493Z,17.41
2024-04-06T20:37:43.470Z,17.33
2024-04-06T20:38:43.459Z,17.29
2024-04-06T20:39:43.492Z,17.25
2024-04-06T20:40:43.456Z,17.22
2024-04-06T20:41:43.432Z,17.20
2024-04-06T20:42:43.396Z,17.20
2024-04-06T20:43:43.400Z,17.19
2024-04-06T20:44:43.397Z,17.18
2024-04-06T20:45:43.492Z,17.17
2024-04-06T20:46:43.342Z,17.19
2024-04-06T20:47:43.331Z,17.24
2024-04-06T20:48:43.331Z,17.28
2024-04-06T20:49:43.301Z,17.31
2024-04-06T20:50:43.307Z,17.32
2024-04-06T20:51:43.420Z,17.33
2024-04-06T20:52:43.269Z,17.35
2024-04-06T20:53:43.248Z,17.38
2024-04-06T20:54:43.258Z,17.43
2024-04-06T20:55:43.230Z,17.48
2024-04-06T20:56:43.235Z,17.51
2024-04-06T20:57:43.238Z,17.52
2024-04-06T20:58:43.185Z,17.51
2024-04-06T20:59:43.181Z,17.49
2024-04-06T21:00:43.166Z,17.44
2024-04-06T21:01:43.174Z,17.38
2024-04-06T21:02:43.145Z,17.31
2024-04-06T21:03:43.183Z,17.23
2024-04-06T21:04:43.115Z,17.17
2024-04-06T21:05:43.099Z,17.12
2024-04-06T21:06:43.116Z,17.08
2024-04-06T21:07:43.063Z,17.04
2024-04-06T21:08:43.067Z,17.02
2024-04-06T21:09:43.094Z,17.02
2024-04-06T21:10:43.042Z,17.02
2024-04-06T21:11:43.054Z,17.01
2024-04-06T21:12:43.002Z,17.00
2024-04-06T21:13:42.994Z,16.99
2024-04-06T21:14:42.993Z,16.99
2024-04-06T21:15:42.996Z,17.00
2024-04-06T21:16:42.974Z,17.02
2024-04-06T21:17:42.934Z,17.02
2024-04-06T21:18:42.947Z,17.01